createdAt,value
2018-12-02T00:00:33.298Z,8.40
2018-12-02T00:03:02.131Z,8.40
2018-12-02T00:05:30.229Z,8.40
2018-12-02T00:07:58.409Z,8.40
2018-12-02T00:10:26.633Z,8.40
2018-12-02T00:12:54.660Z,8.50
2018-12-02T00:15:24.067Z,8.50
2018-12-02T00:17:53.641Z,8.50
2018-12-02T00:20:21.767Z,8.50
2018-12-02T00:22:50.588Z,8.50
2018-12-02T00:25:18.020Z,8.50
2018-12-02T00:27:48.243Z,8.50
2018-12-02T00:30:17.813Z,8.50
2018-12-02T00:32:45.921Z,8.40
2018-12-02T00:35:14.617Z,8.50
2018-12-02T00:37:42.996Z,8.40
2018-12-02T00:40:11.826Z,8.40
2018-12-02T00:42:40.083Z,8.40
2018-12-02T00:45:09.842Z,8.40
2018-12-02T00:47:37.841Z,8.40
2018-12-02T00:50:10.779Z,8.30
2018-12-02T00:52:39.369Z,8.40
2018-12-02T00:55:10.995Z,8.40
2018-12-02T00:57:38.999Z,8.40
2018-12-02T01:00:08.537Z,8.50
2018-12-02T01:02:36.587Z,8.50
2018-12-02T01:05:05.502Z,8.50
2018-12-02T01:07:33.545Z,8.50
2018-12-02T01:10:01.739Z,8.50
2018-12-02T01:12:29.760Z,8.50
2018-12-02T01:14:57.967Z,8.50
2018-12-02T01:17:26.090Z,8.50
2018-12-02T01:19:58.429Z,8.50
2018-12-02T01:22:26.452Z,8.50
2018-12-02T01:24:54.624Z,8.50
2018-12-02T01:27:22.626Z,8.50
2018-12-02T01:29:50.757Z,8.50
2018-12-02T01:32:18.845Z,8.50
2018-12-02T01:34:47.071Z,8.50
2018-12-02T01:37:15.130Z,8.50
2018-12-02T01:39:44.293Z,8.50
2018-12-02T01:42:12.320Z,8.40
2018-12-02T01:44:43.973Z,8.40
2018-12-02T01:47:12.011Z,8.50
2018-12-02T01:49:40.176Z,8.50
2018-12-02T01:52:08.270Z,8.50
2018-12-02T01:54:44.996Z,8.50
2018-12-02T01:57:13.146Z,8.50
2018-12-02T01:59:42.404Z,8.60
2018-12-02T02:02:10.437Z,8.60
2018-12-02T02:04:38.642Z,8.70
2018-12-02T02:07:06.690Z,8.70
2018-12-02T02:09:34.887Z,8.70
2018-12-02T02:12:03.808Z,8.70
2018-12-02T02:14:32.438Z,8.80
2018-12-02T02:17:00.475Z,8.70
2018-12-02T02:19:32.417Z,8.70
2018-12-02T02:22:00.422Z,8.80
2018-12-02T02:24:28.782Z,8.90
2018-12-02T02:26:56.803Z,8.90
2018-12-02T02:29:24.956Z,8.90
2018-12-02T02:31:53.021Z,8.90
2018-12-02T02:34:21.270Z,8.90
2018-12-02T02:36:49.459Z,8.90
2018-12-02T02:39:20.940Z,9.00
2018-12-02T02:41:48.947Z,9.00
2018-12-02T02:44:18.005Z,9.00
2018-12-02T02:46:46.226Z,9.00
2018-12-02T02:49:16.368Z,8.90
2018-12-02T02:51:44.505Z,8.90
2018-12-02T02:54:12.618Z,8.90
2018-12-02T02:56:40.584Z,8.80
2018-12-02T02:59:12.659Z,8.80
2018-12-02T03:01:40.680Z,8.80
2018-12-02T03:04:08.809Z,8.80
2018-12-02T03:06:36.802Z,8.80
2018-12-02T03:09:07.060Z,8.80
2018-12-02T03:11:35.050Z,8.80
2018-12-02T03:14:03.724Z,8.80
2018-12-02T03:16:31.797Z,8.80
2018-12-02T03:19:01.929Z,8.80
2018-12-02T03:21:29.905Z,8.80
2018-12-02T03:24:04.657Z,8.80
2018-12-02T03:26:32.679Z,8.90
2018-12-02T03:29:04.331Z,8.90
2018-12-02T03:31:32.384Z,8.90
2018-12-02T03:34:00.511Z,8.90
2018-12-02T03:36:28.513Z,8.90
2018-12-02T03:38:56.681Z,8.90
2018-12-02T03:41:24.669Z,8.90
2018-12-02T03:43:52.815Z,8.90
2018-12-02T03:46:20.818Z,8.90
2018-12-02T03:48:48.945Z,8.90
2018-12-02T03:51:16.968Z,9.00
2018-12-02T03:53:45.057Z,9.00
2018-12-02T03:56:17.490Z,9.00
2018-12-02T03:58:45.652Z,9.00
2018-12-02T04:01:13.659Z,9.00
2018-12-02T04:03:42.324Z,8.90
2018-12-02T04:06:10.395Z,8.90
2018-12-02T04:08:38.582Z,8.90
2018-12-02T04:11:06.861Z,8.90
2018-12-02T04:13:34.988Z,8.90
2018-12-02T04:16:03.035Z,9.00
2018-12-02T04:18:31.251Z,9.00
2018-12-02T04:20:59.270Z,8.90
2018-12-02T04:23:30.846Z,8.90
2018-12-02T04:25:58.897Z,8.90
2018-12-02T04:28:27.135Z,8.80
2018-12-02T04:30:55.174Z,8.80
2018-12-02T04:33:23.339Z,8.80
2018-12-02T04:35:51.523Z,8.80
2018-12-02T04:38:19.650Z,8.80
2018-12-02T04:40:47.663Z,8.90
2018-12-02T04:43:15.838Z,8.90
2018-12-02T04:45:43.900Z,8.90
2018-12-02T04:48:15.777Z,8.90
2018-12-02T04:50:43.739Z,8.90
2018-12-02T04:53:11.913Z,8.90
2018-12-02T04:55:39.918Z,8.90
2018-12-02T04:58:08.167Z,8.90
2018-12-02T05:00:36.133Z,8.90
2018-12-02T05:03:04.275Z,8.80
2018-12-02T05:05:32.720Z,8.80
2018-12-02T05:08:00.869Z,8.90
2018-12-02T05:10:28.924Z,8.90
2018-12-02T05:12:57.090Z,8.90
2018-12-02T05:15:25.114Z,8.80
2018-12-02T05:17:53.253Z,8.90
2018-12-02T05:20:22.419Z,8.80
2018-12-02T05:22:50.631Z,8.80
2018-12-02T05:25:19.807Z,8.80
2018-12-02T05:27:47.985Z,8.80
2018-12-02T05:30:16.570Z,8.90
2018-12-02T05:32:46.185Z,8.90
2018-12-02T05:35:14.461Z,8.90
2018-12-02T05:37:42.610Z,8.90
2018-12-02T05:40:12.008Z,8.90
2018-12-02T05:42:42.194Z,8.90
2018-12-02T05:45:11.481Z,8.90
2018-12-02T05:47:39.588Z,8.90
2018-12-02T05:50:11.147Z,8.90
2018-12-02T05:52:46.316Z,8.80
2018-12-02T05:55:14.916Z,8.80
2018-12-02T05:57:43.112Z,8.70
2018-12-02T06:00:11.986Z,8.70
2018-12-02T06:02:45.535Z,8.70
2018-12-02T06:05:13.687Z,8.70
2018-12-02T06:07:42.791Z,8.70
2018-12-02T06:10:12.325Z,8.70
2018-12-02T06:12:40.538Z,8.60
2018-12-02T06:15:11.104Z,8.60
2018-12-02T06:17:43.039Z,8.50
2018-12-02T06:20:19.309Z,8.50
2018-12-02T06:22:47.587Z,8.50
2018-12-02T06:25:21.677Z,8.40
2018-12-02T06:27:49.980Z,8.40
2018-12-02T06:30:20.222Z,8.40
2018-12-02T06:32:49.796Z,8.40
2018-12-02T06:35:17.883Z,8.30
2018-12-02T06:37:45.935Z,8.30
2018-12-02T06:40:20.147Z,8.30
2018-12-02T06:42:48.224Z,8.30
2018-12-02T06:45:16.370Z,8.30
2018-12-02T06:47:44.421Z,8.20
2018-12-02T06:50:16.939Z,8.20
2018-12-02T06:52:45.081Z,8.20
2018-12-02T06:55:17.769Z,8.30
2018-12-02T06:57:51.034Z,8.20
2018-12-02T07:00:33.987Z,8.20
2018-12-02T07:03:09.613Z,8.20
2018-12-02T07:05:40.292Z,8.20
2018-12-02T07:08:08.454Z,8.20
2018-12-02T07:10:36.480Z,8.20
2018-12-02T07:13:04.727Z,8.10
2018-12-02T07:15:32.692Z,8.10
2018-12-02T07:18:04.605Z,8.10
2018-12-02T07:20:34.247Z,8.10
2018-12-02T07:23:06.009Z,8.10
2018-12-02T07:25:36.253Z,8.10
2018-12-02T07:28:06.178Z,8.10
2018-12-02T07:30:34.228Z,8.10
2018-12-02T07:33:02.276Z,8.10
2018-12-02T07:35:30.456Z,8.10
2018-12-02T07:37:59.355Z,8.10
2018-12-02T07:40:30.422Z,8.10
2018-12-02T07:42:58.576Z,8.10
2018-12-02T07:45:26.727Z,8.10
2018-12-02T07:47:54.736Z,8.10
2018-12-02T07:50:22.836Z,8.10
2018-12-02T07:52:50.939Z,8.10
2018-12-02T07:55:22.644Z,8.10
2018-12-02T07:57:50.765Z,8.10
2018-12-02T08:00:18.864Z,8.10
2018-12-02T08:02:46.877Z,8.10
2018-12-02T08:05:18.237Z,8.10
2018-12-02T08:07:48.090Z,8.10
2018-12-02T08:10:16.665Z,8.10
2018-12-02T08:12:44.712Z,8.10
2018-12-02T08:15:13.432Z,8.10
2018-12-02T08:17:41.648Z,8.10
2018-12-02T08:20:12.517Z,8.10
2018-12-02T08:22:40.617Z,8.10
2018-12-02T08:25:09.648Z,8.20
2018-12-02T08:27:37.720Z,8.20
2018-12-02T08:30:09.466Z,8.30
2018-12-02T08:32:37.477Z,8.30
2018-12-02T08:35:07.127Z,8.30
2018-12-02T08:37:35.178Z,8.30
2018-12-02T08:40:08.351Z,8.30
2018-12-02T08:42:36.319Z,8.30
2018-12-02T08:45:05.158Z,8.40
2018-12-02T08:47:33.177Z,8.40
2018-12-02T08:50:01.298Z,8.40
2018-12-02T08:52:29.321Z,8.40
2018-12-02T08:54:57.468Z,8.40
2018-12-02T08:57:25.490Z,8.40
2018-12-02T08:59:53.643Z,8.40
2018-12-02T09:02:21.676Z,8.40
2018-12-02T09:04:49.732Z,8.40
2018-12-02T09:07:18.186Z,8.40
2018-12-02T09:09:46.231Z,8.40
2018-12-02T09:12:14.371Z,8.40
2018-12-02T09:14:42.626Z,8.40
2018-12-02T09:17:10.818Z,8.50
2018-12-02T09:19:38.934Z,8.50
2018-12-02T09:22:06.917Z,8.50
2018-12-02T09:24:35.386Z,8.50
2018-12-02T09:27:03.517Z,8.60
2018-12-02T09:29:33.628Z,8.60
2018-12-02T09:32:01.634Z,8.60
2018-12-02T09:34:29.799Z,8.70
2018-12-02T09:36:58.200Z,8.70
2018-12-02T09:39:31.311Z,8.70
2018-12-02T09:41:59.351Z,8.70
2018-12-02T09:44:27.508Z,8.80
2018-12-02T09:46:55.618Z,8.80
2018-12-02T09:49:23.728Z,8.80
2018-12-02T09:51:51.722Z,8.80
2018-12-02T09:54:23.319Z,8.90
2018-12-02T09:56:47.949Z,8.90
2018-12-02T09:59:16.034Z,8.90
2018-12-02T10:01:43.995Z,8.90
2018-12-02T10:04:15.226Z,8.90
2018-12-02T10:06:43.427Z,8.90
2018-12-02T10:09:12.150Z,8.90
2018-12-02T10:11:40.333Z,8.90
2018-12-02T10:14:12.278Z,8.90
2018-12-02T10:16:40.363Z,8.90
2018-12-02T10:19:09.711Z,8.90
2018-12-02T10:21:37.851Z,9.00
2018-12-02T10:24:06.736Z,9.00
2018-12-02T10:26:37.761Z,9.00
2018-12-02T10:29:07.445Z,9.00
2018-12-02T10:31:36.522Z,9.00
2018-12-02T10:34:05.046Z,9.00
2018-12-02T10:36:34.004Z,9.00
2018-12-02T10:39:05.567Z,9.00
2018-12-02T10:41:33.563Z,9.00
2018-12-02T10:44:01.868Z,9.00
2018-12-02T10:46:29.903Z,9.00
2018-12-02T10:49:01.832Z,9.00
2018-12-02T10:51:29.894Z,9.00
2018-12-02T10:53:58.071Z,9.10
2018-12-02T10:56:26.124Z,9.10
2018-12-02T10:58:54.654Z,9.10
2018-12-02T11:01:27.146Z,9.10
2018-12-02T11:03:55.563Z,9.20
2018-12-02T11:06:24.859Z,9.20
2018-12-02T11:08:53.338Z,9.20
2018-12-02T11:11:21.579Z,9.20
2018-12-02T11:13:49.620Z,9.20
2018-12-02T11:16:17.780Z,9.30
2018-12-02T11:18:45.956Z,9.30
2018-12-02T11:21:16.136Z,9.40
2018-12-02T11:23:44.148Z,9.40
2018-12-02T11:26:13.791Z,9.50
2018-12-02T11:28:41.735Z,9.60
2018-12-02T11:31:09.989Z,9.60
2018-12-02T11:33:38.441Z,9.60
2018-12-02T11:36:06.754Z,9.70
2018-12-02T11:38:34.775Z,9.70
2018-12-02T11:41:02.891Z,9.80
2018-12-02T11:43:31.212Z,9.80
2018-12-02T11:46:01.705Z,9.80
2018-12-02T11:48:29.728Z,9.80
2018-12-02T11:50:58.027Z,9.90
2018-12-02T11:53:26.348Z,9.90
2018-12-02T11:55:54.557Z,9.90
2018-12-02T11:58:22.728Z,10.00
2018-12-02T12:00:57.021Z,10.00
2018-12-02T12:03:25.369Z,10.10
2018-12-02T12:05:54.494Z,10.10
2018-12-02T12:08:23.759Z,10.10
2018-12-02T12:10:51.905Z,10.20
2018-12-02T12:13:21.147Z,10.20
2018-12-02T12:15:50.916Z,10.20
2018-12-02T12:18:20.600Z,10.30
2018-12-02T12:20:49.734Z,10.30
2018-12-02T12:23:26.743Z,10.30
2018-12-02T12:25:59.995Z,10.40
2018-12-02T12:28:31.649Z,10.40
2018-12-02T12:31:02.601Z,10.40
2018-12-02T12:33:33.704Z,10.40
2018-12-02T12:36:05.061Z,10.40
2018-12-02T12:38:33.604Z,10.50
2018-12-02T12:41:01.990Z,10.50
2018-12-02T12:43:34.723Z,10.50
2018-12-02T12:46:20.394Z,10.50
2018-12-02T12:48:48.637Z,10.50
2018-12-02T12:51:19.532Z,10.50
2018-12-02T12:53:49.788Z,10.50
2018-12-02T12:56:18.026Z,10.50
2018-12-02T12:58:46.919Z,10.60
2018-12-02T13:01:16.269Z,10.60
2018-12-02T13:03:45.047Z,10.60
2018-12-02T13:06:16.898Z,10.70
2018-12-02T13:08:45.407Z,10.40
2018-12-02T13:11:16.296Z,10.70
2018-12-02T13:13:45.766Z,10.70
2018-12-02T13:16:39.475Z,10.70
2018-12-02T13:19:08.552Z,10.70
2018-12-02T13:21:37.098Z,10.70
2018-12-02T13:24:11.287Z,10.80
2018-12-02T13:26:51.438Z,10.80
2018-12-02T13:29:21.133Z,10.70
2018-12-02T13:31:49.821Z,10.70
2018-12-02T13:34:21.305Z,10.80
2018-12-02T13:36:53.650Z,10.80
2018-12-02T13:39:24.476Z,10.80
2018-12-02T13:41:57.852Z,10.80
2018-12-02T13:44:27.214Z,10.80
2018-12-02T13:47:00.919Z,10.90
2018-12-02T13:49:38.270Z,10.90
2018-12-02T13:52:13.698Z,10.90
2018-12-02T13:54:45.500Z,11.00
2018-12-02T13:57:13.803Z,11.00
2018-12-02T13:59:43.810Z,11.00
2018-12-02T14:02:18.345Z,11.10
2018-12-02T14:04:49.713Z,11.10
2018-12-02T14:07:18.512Z,11.20
2018-12-02T14:09:46.635Z,11.30
2018-12-02T14:12:16.753Z,11.40
2018-12-02T14:14:45.138Z,11.50
2018-12-02T14:17:19.776Z,11.50
2018-12-02T14:19:48.178Z,11.60
2018-12-02T14:22:18.228Z,11.60
2018-12-02T14:24:46.634Z,11.60
2018-12-02T14:27:15.365Z,11.60
2018-12-02T14:30:07.540Z,11.70
2018-12-02T14:32:37.755Z,11.70
2018-12-02T14:35:29.034Z,11.70
2018-12-02T14:37:57.050Z,11.70
2018-12-02T14:40:26.213Z,11.70
2018-12-02T14:42:57.545Z,11.80
2018-12-02T14:45:27.180Z,11.80
2018-12-02T14:47:55.595Z,11.80
2018-12-02T14:50:24.415Z,11.80
2018-12-02T14:52:56.260Z,11.80
2018-12-02T14:55:25.959Z,11.80
2018-12-02T14:57:54.555Z,11.90
2018-12-02T15:00:24.822Z,11.90
2018-12-02T15:02:55.066Z,11.90
2018-12-02T15:05:24.177Z,12.00
2018-12-02T15:07:52.410Z,12.00
2018-12-02T15:10:25.363Z,11.90
2018-12-02T15:12:56.474Z,11.90
2018-12-02T15:15:25.578Z,11.90
2018-12-02T15:17:54.067Z,12.00
2018-12-02T15:20:24.460Z,11.90
2018-12-02T15:22:52.448Z,12.00
2018-12-02T15:25:20.643Z,12.00
2018-12-02T15:27:50.012Z,11.90
2018-12-02T15:30:20.317Z,12.00
2018-12-02T15:32:51.194Z,12.00
2018-12-02T15:35:23.000Z,12.00
2018-12-02T15:37:51.705Z,12.00
2018-12-02T15:40:25.720Z,12.00
2018-12-02T15:42:54.403Z,12.10
2018-12-02T15:45:23.487Z,12.10
2018-12-02T15:47:51.611Z,12.10
2018-12-02T15:50:23.604Z,13.30
2018-12-02T15:52:59.826Z,12.10
2018-12-02T15:55:32.353Z,12.10
2018-12-02T15:58:02.588Z,12.10
2018-12-02T16:00:38.292Z,12.20
2018-12-02T16:03:06.764Z,12.20
2018-12-02T16:05:37.626Z,12.20
2018-12-02T16:08:07.053Z,12.20
2018-12-02T16:10:36.482Z,12.30
2018-12-02T16:13:07.365Z,12.40
2018-12-02T16:15:47.224Z,12.50
2018-12-02T16:18:20.110Z,12.40
2018-12-02T16:20:51.710Z,12.40
2018-12-02T16:23:21.993Z,12.40
2018-12-02T16:25:51.120Z,12.40
2018-12-02T16:28:21.644Z,12.50
2018-12-02T16:30:52.343Z,12.50
2018-12-02T16:33:22.754Z,12.50
2018-12-02T16:35:51.425Z,12.40
2018-12-02T16:38:22.337Z,12.30
2018-12-02T16:40:53.677Z,12.30
2018-12-02T16:43:23.787Z,12.20
2018-12-02T16:46:00.199Z,12.20
2018-12-02T16:48:29.490Z,12.10
2018-12-02T16:50:57.902Z,12.10
2018-12-02T16:53:30.709Z,12.10
2018-12-02T16:59:03.715Z,12.10
2018-12-02T17:01:32.701Z,12.20
2018-12-02T17:04:01.802Z,12.10
2018-12-02T17:06:30.724Z,12.20
2018-12-02T17:09:00.920Z,12.10
2018-12-02T17:11:32.311Z,12.20
2018-12-02T17:14:04.654Z,12.20
2018-12-02T17:16:33.315Z,12.20
2018-12-02T17:19:03.148Z,12.20
2018-12-02T17:21:31.203Z,12.20
2018-12-02T17:23:59.898Z,12.20
2018-12-02T17:26:27.961Z,12.20
2018-12-02T17:28:56.725Z,12.20
2018-12-02T17:31:28.155Z,12.30
2018-12-02T17:33:56.657Z,12.40
2018-12-02T17:36:24.692Z,12.40
2018-12-02T17:38:55.309Z,12.40
2018-12-02T17:41:23.419Z,12.40
2018-12-02T17:43:56.688Z,12.30
2018-12-02T17:46:24.707Z,12.30
2018-12-02T17:48:53.303Z,12.30
2018-12-02T17:51:21.552Z,12.20
2018-12-02T17:53:49.485Z,12.20
2018-12-02T17:56:17.459Z,12.20
2018-12-02T17:58:47.715Z,12.20
2018-12-02T18:01:15.966Z,12.10
2018-12-02T18:03:47.101Z,12.20
2018-12-02T18:06:20.191Z,12.20
2018-12-02T18:08:48.131Z,12.20
2018-12-02T18:11:16.592Z,12.10
2018-12-02T18:14:00.692Z,12.20
2018-12-02T18:16:31.858Z,12.20
2018-12-02T18:19:02.748Z,12.20
2018-12-02T18:21:33.735Z,12.20
2018-12-02T18:24:04.291Z,12.10
2018-12-02T18:26:32.350Z,12.10
2018-12-02T18:29:05.035Z,12.10
2018-12-02T18:31:35.422Z,12.10
2018-12-02T18:34:06.487Z,12.00
2018-12-02T18:36:37.897Z,12.10
2018-12-02T18:39:09.386Z,12.00
2018-12-02T18:41:38.464Z,12.00
2018-12-02T18:44:07.315Z,12.00
2018-12-02T18:46:35.481Z,11.90
2018-12-02T18:49:03.541Z,11.90
2018-12-02T18:51:31.514Z,11.90
2018-12-02T18:53:59.677Z,11.90
2018-12-02T18:56:27.984Z,12.00
2018-12-02T18:58:56.266Z,12.00
2018-12-02T19:01:24.387Z,11.90
2018-12-02T19:03:52.435Z,11.90
2018-12-02T19:06:20.450Z,11.90
2018-12-02T19:08:48.464Z,11.90
2018-12-02T19:11:16.442Z,11.90
2018-12-02T19:13:44.439Z,11.90
2018-12-02T19:16:14.096Z,11.90
2018-12-02T19:18:42.536Z,11.80
2018-12-02T19:21:14.706Z,11.80
2018-12-02T19:23:42.784Z,11.80
2018-12-02T19:26:10.759Z,11.80
2018-12-02T19:28:39.262Z,11.70
2018-12-02T19:31:08.584Z,11.60
2018-12-02T19:33:36.985Z,11.60
2018-12-02T19:36:09.496Z,11.60
2018-12-02T19:38:37.575Z,11.60
2018-12-02T19:41:06.081Z,11.60
2018-12-02T19:43:34.154Z,11.60
2018-12-02T19:46:02.163Z,11.60
2018-12-02T19:48:30.171Z,11.60
2018-12-02T19:50:58.210Z,11.60
2018-12-02T19:53:26.244Z,11.60
2018-12-02T19:55:54.402Z,11.70
2018-12-02T19:58:23.118Z,11.80
2018-12-02T20:00:51.170Z,11.80
2018-12-02T20:03:19.310Z,11.80
2018-12-02T20:05:47.997Z,11.90
2018-12-02T20:08:16.218Z,11.80
2018-12-02T20:10:45.090Z,11.80
2018-12-02T20:13:13.993Z,11.90
2018-12-02T20:15:47.522Z,11.90
2018-12-02T20:18:15.724Z,11.90
2018-12-02T20:20:50.273Z,11.90
2018-12-02T20:23:24.167Z,11.90
2018-12-02T20:25:53.159Z,11.90
2018-12-02T20:28:21.591Z,11.90
2018-12-02T20:30:49.602Z,11.90
2018-12-02T20:33:17.696Z,11.90
2018-12-02T20:35:45.756Z,11.90
2018-12-02T20:38:13.756Z,11.90
2018-12-02T20:40:41.723Z,11.90
2018-12-02T20:43:09.738Z,11.90
2018-12-02T20:45:37.750Z,12.00
2018-12-02T20:48:05.900Z,11.90
2018-12-02T20:50:34.035Z,12.00
2018-12-02T20:53:02.071Z,12.00
2018-12-02T20:55:30.159Z,11.90
2018-12-02T20:57:58.913Z,12.00
2018-12-02T21:00:26.942Z,11.90
2018-12-02T21:02:56.744Z,11.90
2018-12-02T21:05:27.033Z,11.90
2018-12-02T21:07:54.966Z,12.00
2018-12-02T21:10:22.942Z,12.00
2018-12-02T21:12:51.045Z,12.00
2018-12-02T21:15:18.967Z,12.00
2018-12-02T21:17:46.921Z,12.10
2018-12-02T21:20:14.907Z,12.10
2018-12-02T21:22:42.893Z,12.10
2018-12-02T21:25:11.615Z,12.10
2018-12-02T21:27:39.555Z,12.10
2018-12-02T21:30:10.152Z,12.10
2018-12-02T21:32:38.126Z,12.10
2018-12-02T21:35:06.128Z,12.10
2018-12-02T21:37:34.067Z,12.00
2018-12-02T21:40:02.075Z,12.00
2018-12-02T21:42:30.121Z,12.00
2018-12-02T21:44:58.111Z,12.00
2018-12-02T21:47:26.031Z,12.00
2018-12-02T21:49:54.012Z,11.90
2018-12-02T21:52:21.983Z,12.00
2018-12-02T21:54:49.973Z,12.00
2018-12-02T21:57:17.978Z,12.10
2018-12-02T21:59:45.965Z,12.20
2018-12-02T22:02:13.919Z,12.20
2018-12-02T22:04:42.686Z,12.20
2018-12-02T22:07:09.902Z,12.20
2018-12-02T22:09:37.891Z,12.10
2018-12-02T22:12:06.097Z,12.10
2018-12-02T22:14:34.114Z,12.10
2018-12-02T22:17:02.155Z,12.10
2018-12-02T22:19:30.130Z,12.10
2018-12-02T22:21:58.116Z,12.10
2018-12-02T22:24:26.115Z,12.10
2018-12-02T22:26:54.091Z,12.10
2018-12-02T22:29:22.104Z,12.10
2018-12-02T22:31:50.107Z,12.10
2018-12-02T22:34:18.151Z,12.10
2018-12-02T22:36:46.102Z,12.00
2018-12-02T22:39:14.056Z,12.00
2018-12-02T22:41:42.023Z,11.90
2018-12-02T22:44:09.982Z,12.00
2018-12-02T22:46:37.954Z,12.00
2018-12-02T22:49:06.108Z,12.00
2018-12-02T22:51:34.097Z,12.10
2018-12-02T22:54:02.100Z,12.20
2018-12-02T22:56:30.140Z,12.10
2018-12-02T22:58:58.129Z,12.10
2018-12-02T23:01:31.385Z,12.20
2018-12-02T23:03:59.353Z,12.20
2018-12-02T23:06:27.507Z,12.10
2018-12-02T23:08:55.611Z,12.10
2018-12-02T23:11:23.597Z,12.10
2018-12-02T23:13:51.787Z,12.10
2018-12-02T23:16:19.896Z,12.20
2018-12-02T23:18:47.854Z,12.20
2018-12-02T23:21:15.835Z,12.30
2018-12-02T23:23:43.890Z,12.30
2018-12-02T23:26:11.850Z,12.20
2018-12-02T23:28:39.865Z,12.20
2018-12-02T23:31:07.847Z,12.20
2018-12-02T23:33:35.819Z,12.20
2018-12-02T23:36:03.809Z,12.20
2018-12-02T23:38:31.862Z,12.20
2018-12-02T23:40:59.787Z,12.20
2018-12-02T23:43:27.758Z,12.20
2018-12-02T23:45:55.773Z,12.20
2018-12-02T23:48:23.703Z,12.20
2018-12-02T23:50:51.746Z,12.20
2018-12-02T23:53:19.707Z,12.20
2018-12-02T23:55:47.690Z,12.10
2018-12-02T23:58:15.648Z,12.10
